sensor_id;sensor_type;location;lat;lon;timestamp;pressure;altitude;pressure_sealevel;temperature;humidity
53300;BME280;39187;48.476;8.310;2023-03-13T00:00:34;90817.38;;;5.27;100.00
53300;BME280;39187;48.476;8.310;2023-03-13T00:02:59;90819.25;;;5.30;100.00
53300;BME280;39187;48.476;8.310;2023-03-13T00:05:24;90825.13;;;5.48;100.00
53300;BME280;39187;48.476;8.310;2023-03-13T00:07:50;90825.53;;;5.46;100.00
53300;BME280;39187;48.476;8.310;2023-03-13T00:10:16;90821.41;;;5.42;100.00
53300;BME280;39187;48.476;8.310;2023-03-13T00:12:41;90819.81;;;5.51;100.00
53300;BME280;39187;48.476;8.310;2023-03-13T00:15:08;90831.25;;;5.38;100.00
53300;BME280;39187;48.476;8.310;2023-03-13T00:17:34;90829.34;;;5.42;100.00
53300;BME280;39187;48.476;8.310;2023-03-13T00:19:59;90826.44;;;5.29;100.00
53300;BME280;39187;48.476;8.310;2023-03-13T00:22:25;90827.88;;;5.37;100.00
53300;BME280;39187;48.476;8.310;2023-03-13T00:24:51;90825.16;;;5.44;100.00
53300;BME280;39187;48.476;8.310;2023-03-13T00:27:16;90825.13;;;5.48;100.00
53300;BME280;39187;48.476;8.310;2023-03-13T00:29:42;90813.66;;;5.65;100.00
53300;BME280;39187;48.476;8.310;2023-03-13T00:32:07;90811.31;;;5.33;100.00
53300;BME280;39187;48.476;8.310;2023-03-13T00:34:33;90811.69;;;5.35;100.00
53300;BME280;39187;48.476;8.310;2023-03-13T00:36:58;90818.78;;;5.42;100.00
53300;BME280;39187;48.476;8.310;2023-03-13T00:39:23;90808.31;;;5.31;100.00
53300;BME280;39187;48.476;8.310;2023-03-13T00:41:49;90794.34;;;5.34;100.00
53300;BME280;39187;48.476;8.310;2023-03-13T00:44:15;90797.88;;;5.58;100.00
53300;BME280;39187;48.476;8.310;2023-03-13T00:46:40;90802.69;;;5.29;100.00
53300;BME280;39187;48.476;8.310;2023-03-13T00:49:06;90795.34;;;5.47;100.00
53300;BME280;39187;48.476;8.310;2023-03-13T00:51:32;90792.88;;;5.30;100.00
53300;BME280;39187;48.476;8.310;2023-03-13T00:53:58;90804.03;;;5.48;100.00
53300;BME280;39187;48.476;8.310;2023-03-13T00:56:25;90791.28;;;5.39;100.00
53300;BME280;39187;48.476;8.310;2023-03-13T00:58:51;90790.44;;;5.49;100.00
53300;BME280;39187;48.476;8.310;2023-03-13T01:01:32;90795.69;;;5.53;100.00
53300;BME280;39187;48.476;8.310;2023-03-13T01:04:00;90793.09;;;5.46;100.00
53300;BME280;39187;48.476;8.310;2023-03-13T01:06:28;90791.59;;;5.45;100.00
53300;BME280;39187;48.476;8.310;2023-03-13T01:08:55;90778.66;;;5.57;100.00
53300;BME280;39187;48.476;8.310;2023-03-13T01:11:22;90782.28;;;5.71;100.00
53300;BME280;39187;48.476;8.310;2023-03-13T01:13:49;90785.16;;;5.87;100.00
53300;BME280;39187;48.476;8.310;2023-03-13T01:16:19;90784.91;;;5.74;100.00
53300;BME280;39187;48.476;8.310;2023-03-13T01:18:50;90778.88;;;5.74;100.00
53300;BME280;39187;48.476;8.310;2023-03-13T01:21:16;90772.38;;;5.82;100.00
53300;BME280;39187;48.476;8.310;2023-03-13T01:23:44;90767.69;;;5.62;100.00
53300;BME280;39187;48.476;8.310;2023-03-13T01:26:10;90769.31;;;5.87;100.00
53300;BME280;39187;48.476;8.310;2023-03-13T01:28:36;90754.94;;;5.91;100.00
53300;BME280;39187;48.476;8.310;2023-03-13T01:31:14;90757.19;;;5.93;100.00
53300;BME280;39187;48.476;8.310;2023-03-13T01:33:40;90752.09;;;6.09;100.00
53300;BME280;39187;48.476;8.310;2023-03-13T01:36:06;90756.75;;;5.98;100.00
53300;BME280;39187;48.476;8.310;2023-03-13T01:38:33;90759.16;;;5.89;100.00
53300;BME280;39187;48.476;8.310;2023-03-13T01:40:58;90754.44;;;6.03;100.00
53300;BME280;39187;48.476;8.310;2023-03-13T01:43:26;90749.28;;;5.93;100.00
53300;BME280;39187;48.476;8.310;2023-03-13T01:46:03;90756.09;;;5.87;100.00
53300;BME280;39187;48.476;8.310;2023-03-13T01:51:42;90747.94;;;5.74;100.00
53300;BME280;39187;48.476;8.310;2023-03-13T01:57:06;90732.13;;;5.71;100.00
53300;BME280;39187;48.476;8.310;2023-03-13T01:59:40;90721.38;;;5.54;100.00
53300;BME280;39187;48.476;8.310;2023-03-13T02:02:06;90724.16;;;5.44;100.00
53300;BME280;39187;48.476;8.310;2023-03-13T02:04:38;90716.31;;;5.37;100.00
53300;BME280;39187;48.476;8.310;2023-03-13T02:07:11;90716.94;;;5.44;100.00
53300;BME280;39187;48.476;8.310;2023-03-13T02:09:41;90720.75;;;5.43;100.00
53300;BME280;39187;48.476;8.310;2023-03-13T02:12:15;90724.56;;;5.39;100.00
53300;BME280;39187;48.476;8.310;2023-03-13T02:14:44;90715.44;;;5.47;100.00
53300;BME280;39187;48.476;8.310;2023-03-13T02:17:12;90707.69;;;5.29;100.00
53300;BME280;39187;48.476;8.310;2023-03-13T02:19:44;90700.63;;;5.19;100.00
53300;BME280;39187;48.476;8.310;2023-03-13T02:25:15;90711.84;;;5.30;100.00
53300;BME280;39187;48.476;8.310;2023-03-13T02:27:46;90700.09;;;5.35;100.00
53300;BME280;39187;48.476;8.310;2023-03-13T02:30:13;90706.25;;;5.24;100.00
53300;BME280;39187;48.476;8.310;2023-03-13T02:32:39;90691.56;;;5.23;100.00
53300;BME280;39187;48.476;8.310;2023-03-13T02:35:08;90699.06;;;5.25;100.00
53300;BME280;39187;48.476;8.310;2023-03-13T02:37:34;90665.84;;;5.31;100.00
53300;BME280;39187;48.476;8.310;2023-03-13T02:40:05;90676.81;;;5.26;100.00
53300;BME280;39187;48.476;8.310;2023-03-13T02:42:36;90680.53;;;5.32;100.00
53300;BME280;39187;48.476;8.310;2023-03-13T02:45:03;90664.63;;;5.39;100.00
53300;BME280;39187;48.476;8.310;2023-03-13T02:47:30;90656.00;;;5.35;100.00
53300;BME280;39187;48.476;8.310;2023-03-13T02:49:55;90648.78;;;5.39;100.00
53300;BME280;39187;48.476;8.310;2023-03-13T02:52:30;90643.56;;;5.32;100.00
53300;BME280;39187;48.476;8.310;2023-03-13T02:55:07;90638.63;;;5.38;100.00
53300;BME280;39187;48.476;8.310;2023-03-13T02:57:34;90641.97;;;5.42;100.00
53300;BME280;39187;48.476;8.310;2023-03-13T03:00:01;90638.63;;;5.38;100.00
53300;BME280;39187;48.476;8.310;2023-03-13T03:02:26;90622.78;;;5.38;100.00
53300;BME280;39187;48.476;8.310;2023-03-13T03:04:52;90615.28;;;5.36;100.00
53300;BME280;39187;48.476;8.310;2023-03-13T03:07:17;90604.28;;;5.41;100.00
53300;BME280;39187;48.476;8.310;2023-03-13T03:09:43;90612.78;;;5.56;100.00
53300;BME280;39187;48.476;8.310;2023-03-13T03:12:09;90608.19;;;5.60;100.00
53300;BME280;39187;48.476;8.310;2023-03-13T03:14:34;90604.97;;;5.45;100.00
53300;BME280;39187;48.476;8.310;2023-03-13T03:17:00;90601.91;;;5.50;100.00
53300;BME280;39187;48.476;8.310;2023-03-13T03:19:26;90604.19;;;5.48;100.00
53300;BME280;39187;48.476;8.310;2023-03-13T03:21:51;90600.34;;;5.56;100.00
53300;BME280;39187;48.476;8.310;2023-03-13T03:24:17;90600.97;;;5.64;100.00
53300;BME280;39187;48.476;8.310;2023-03-13T03:26:42;90606.66;;;5.62;100.00
53300;BME280;39187;48.476;8.310;2023-03-13T03:29:08;90610.00;;;5.67;100.00
53300;BME280;39187;48.476;8.310;2023-03-13T03:31:35;90616.78;;;5.68;100.00
53300;BME280;39187;48.476;8.310;2023-03-13T03:34:00;90600.88;;;5.71;100.00
53300;BME280;39187;48.476;8.310;2023-03-13T03:36:26;90606.66;;;5.62;100.00
53300;BME280;39187;48.476;8.310;2023-03-13T03:38:51;90602.22;;;5.56;100.00
53300;BME280;39187;48.476;8.310;2023-03-13T03:41:17;90604.72;;;5.67;100.00
53300;BME280;39187;48.476;8.310;2023-03-13T03:43:44;90598.41;;;5.57;100.00
53300;BME280;39187;48.476;8.310;2023-03-13T03:46:09;90615.75;;;5.58;100.00
53300;BME280;39187;48.476;8.310;2023-03-13T03:48:36;90604.63;;;5.74;100.00
53300;BME280;39187;48.476;8.310;2023-03-13T03:51:02;90608.47;;;5.69;100.00
53300;BME280;39187;48.476;8.310;2023-03-13T03:53:27;90609.94;;;5.70;100.00
53300;BME280;39187;48.476;8.310;2023-03-13T03:55:53;90603.97;;;5.66;100.00
53300;BME280;39187;48.476;8.310;2023-03-13T03:58:19;90619.66;;;5.77;100.00
53300;BME280;39187;48.476;8.310;2023-03-13T04:00:46;90612.19;;;5.72;100.00
53300;BME280;39187;48.476;8.310;2023-03-13T04:03:12;90620.16;;;5.68;100.00
53300;BME280;39187;48.476;8.310;2023-03-13T04:05:38;90609.25;;;5.66;100.00
53300;BME280;39187;48.476;8.310;2023-03-13T04:08:04;90603.78;;;5.80;100.00
53300;BME280;39187;48.476;8.310;2023-03-13T04:10:29;90620.84;;;5.72;100.00
53300;BME280;39187;48.476;8.310;2023-03-13T04:12:55;90609.53;;;5.75;100.00
53300;BME280;39187;48.476;8.310;2023-03-13T04:15:20;90621.16;;;5.78;100.00
53300;BME280;39187;48.476;8.310;2023-03-13T04:17:46;90606.44;;;5.80;100.00
53300;BME280;39187;48.476;8.310;2023-03-13T04:20:11;90606.88;;;5.75;100.00
53300;BME280;39187;48.476;8.310;2023-03-13T04:22:39;90602.66;;;5.81;100.00
53300;BME280;39187;48.476;8.310;2023-03-13T04:25:05;90596.16;;;5.86;100.00
53300;BME280;39187;48.476;8.310;2023-03-13T04:27:32;90601.66;;;5.98;100.00
53300;BME280;39187;48.476;8.310;2023-03-13T04:29:58;90595.25;;;5.99;100.00
53300;BME280;39187;48.476;8.310;2023-03-13T04:32:23;90592.16;;;6.04;100.00
53300;BME280;39187;48.476;8.310;2023-03-13T04:34:49;90595.63;;;5.98;100.00
53300;BME280;39187;48.476;8.310;2023-03-13T04:37:15;90597.06;;;6.02;100.00
53300;BME280;39187;48.476;8.310;2023-03-13T04:39:40;90597.78;;;6.07;100.00
53300;BME280;39187;48.476;8.310;2023-03-13T04:42:07;90587.56;;;6.09;100.00
53300;BME280;39187;48.476;8.310;2023-03-13T04:44:33;90608.94;;;5.91;100.00
53300;BME280;39187;48.476;8.310;2023-03-13T04:46:59;90602.31;;;6.06;100.00
53300;BME280;39187;48.476;8.310;2023-03-13T04:49:24;90597.31;;;5.88;100.00
53300;BME280;39187;48.476;8.310;2023-03-13T04:51:50;90597.44;;;6.04;100.00
53300;BME280;39187;48.476;8.310;2023-03-13T04:54:15;90577.31;;;5.84;100.00
53300;BME280;39187;48.476;8.310;2023-03-13T04:56:41;90605.16;;;5.92;100.00
53300;BME280;39187;48.476;8.310;2023-03-13T04:59:06;90583.34;;;5.88;100.00
53300;BME280;39187;48.476;8.310;2023-03-13T05:01:32;90588.16;;;5.93;100.00
53300;BME280;39187;48.476;8.310;2023-03-13T05:03:58;90591.84;;;5.99;100.00
53300;BME280;39187;48.476;8.310;2023-03-13T05:06:23;90583.53;;;6.00;100.00
53300;BME280;39187;48.476;8.310;2023-03-13T05:08:49;90579.13;;;5.90;100.00
53300;BME280;39187;48.476;8.310;2023-03-13T05:11:14;90596.97;;;6.10;100.00
53300;BME280;39187;48.476;8.310;2023-03-13T05:13:40;90594.34;;;6.10;100.00
53300;BME280;39187;48.476;8.310;2023-03-13T05:16:05;90594.09;;;6.00;100.00
53300;BME280;39187;48.476;8.310;2023-03-13T05:18:31;90598.19;;;6.05;100.00
53300;BME280;39187;48.476;8.310;2023-03-13T05:20:57;90593.34;;;6.00;100.00
53300;BME280;39187;48.476;8.310;2023-03-13T05:23:22;90599.88;;;5.92;100.00
53300;BME280;39187;48.476;8.310;2023-03-13T05:25:48;90608.19;;;5.90;100.00
53300;BME280;39187;48.476;8.310;2023-03-13T05:28:13;90601.19;;;6.07;100.00
53300;BME280;39187;48.476;8.310;2023-03-13T05:30:39;90593.19;;;6.11;100.00
53300;BME280;39187;48.476;8.310;2023-03-13T05:33:04;90588.31;;;6.09;100.00
53300;BME280;39187;48.476;8.310;2023-03-13T05:35:29;90588.56;;;5.91;100.00
53300;BME280;39187;48.476;8.310;2023-03-13T05:37:55;90587.50;;;5.89;100.00
53300;BME280;39187;48.476;8.310;2023-03-13T05:40:20;90591.00;;;6.06;100.00
53300;BME280;39187;48.476;8.310;2023-03-13T05:42:46;90589.38;;;5.88;100.00
53300;BME280;39187;48.476;8.310;2023-03-13T05:45:11;90585.44;;;6.00;100.00
53300;BME280;39187;48.476;8.310;2023-03-13T05:47:37;90584.59;;;6.07;100.00
53300;BME280;39187;48.476;8.310;2023-03-13T05:50:05;90591.09;;;5.98;100.00
53300;BME280;39187;48.476;8.310;2023-03-13T05:52:31;90591.56;;;5.93;100.00
53300;BME280;39187;48.476;8.310;2023-03-13T05:54:57;90589.72;;;5.90;100.00
53300;BME280;39187;48.476;8.310;2023-03-13T05:57:23;90586.94;;;6.01;100.00
53300;BME280;39187;48.476;8.310;2023-03-13T05:59:49;90597.13;;;5.99;100.00
53300;BME280;39187;48.476;8.310;2023-03-13T06:02:14;90592.25;;;5.97;100.00
53300;BME280;39187;48.476;8.310;2023-03-13T06:04:40;90596.19;;;6.13;100.00
53300;BME280;39187;48.476;8.310;2023-03-13T06:07:05;90590.56;;;6.11;100.00
53300;BME280;39187;48.476;8.310;2023-03-13T06:09:31;90600.38;;;6.10;100.00
53300;BME280;39187;48.476;8.310;2023-03-13T06:11:57;90594.72;;;6.08;100.00
53300;BME280;39187;48.476;8.310;2023-03-13T06:14:22;90595.47;;;6.09;100.00
53300;BME280;39187;48.476;8.310;2023-03-13T06:16:48;90593.03;;;6.21;100.00
53300;BME280;39187;48.476;8.310;2023-03-13T06:19:14;90591.38;;;6.31;100.00
53300;BME280;39187;48.476;8.310;2023-03-13T06:21:40;90605.84;;;6.23;100.00
53300;BME280;39187;48.476;8.310;2023-03-13T06:24:06;90606.97;;;6.22;100.00
53300;BME280;39187;48.476;8.310;2023-03-13T06:26:31;90603.00;;;6.10;100.00
53300;BME280;39187;48.476;8.310;2023-03-13T06:28:57;90604.53;;;6.34;100.00
53300;BME280;39187;48.476;8.310;2023-03-13T06:31:22;90598.66;;;6.23;100.00
53300;BME280;39187;48.476;8.310;2023-03-13T06:33:52;90591.78;;;6.29;100.00
53300;BME280;39187;48.476;8.310;2023-03-13T06:36:17;90598.09;;;6.12;100.00
53300;BME280;39187;48.476;8.310;2023-03-13T06:38:43;90595.16;;;6.30;100.00
53300;BME280;39187;48.476;8.310;2023-03-13T06:41:08;90593.19;;;6.34;100.00
53300;BME280;39187;48.476;8.310;2023-03-13T06:43:34;90595.81;;;6.37;100.00
53300;BME280;39187;48.476;8.310;2023-03-13T06:46:03;90601.19;;;6.30;100.00
53300;BME280;39187;48.476;8.310;2023-03-13T06:48:29;90601.69;;;6.22;100.00
53300;BME280;39187;48.476;8.310;2023-03-13T06:50:55;90599.31;;;6.31;100.00
53300;BME280;39187;48.476;8.310;2023-03-13T06:53:20;90600.25;;;6.44;100.00
53300;BME280;39187;48.476;8.310;2023-03-13T06:55:46;90600.88;;;6.52;100.00
53300;BME280;39187;48.476;8.310;2023-03-13T06:58:13;90597.25;;;6.42;100.00
53300;BME280;39187;48.476;8.310;2023-03-13T07:00:39;90604.38;;;6.45;100.00
53300;BME280;39187;48.476;8.310;2023-03-13T07:03:06;90612.41;;;6.38;100.00
53300;BME280;39187;48.476;8.310;2023-03-13T07:05:32;90605.03;;;6.53;100.00
53300;BME280;39187;48.476;8.310;2023-03-13T07:07:58;90600.59;;;6.46;100.00
53300;BME280;39187;48.476;8.310;2023-03-13T07:10:23;90604.56;;;6.58;100.00
53300;BME280;39187;48.476;8.310;2023-03-13T07:12:49;90614.50;;;6.50;100.00
53300;BME280;39187;48.476;8.310;2023-03-13T07:15:14;90608.34;;;6.57;100.00
53300;BME280;39187;48.476;8.310;2023-03-13T07:17:40;90617.94;;;6.70;100.00
53300;BME280;39187;48.476;8.310;2023-03-13T07:20:06;90617.34;;;6.36;100.00
53300;BME280;39187;48.476;8.310;2023-03-13T07:22:35;90610.13;;;6.63;100.00
53300;BME280;39187;48.476;8.310;2023-03-13T07:25:01;90619.94;;;6.63;100.00
53300;BME280;39187;48.476;8.310;2023-03-13T07:27:27;90616.66;;;6.55;100.00
53300;BME280;39187;48.476;8.310;2023-03-13T07:29:52;90612.75;;;6.63;100.00
53300;BME280;39187;48.476;8.310;2023-03-13T07:32:18;90612.53;;;6.54;100.00
53300;BME280;39187;48.476;8.310;2023-03-13T07:34:43;90603.22;;;6.46;100.00
53300;BME280;39187;48.476;8.310;2023-03-13T07:37:12;90595.91;;;6.54;100.00
53300;BME280;39187;48.476;8.310;2023-03-13T07:39:38;90598.88;;;6.59;100.00
53300;BME280;39187;48.476;8.310;2023-03-13T07:42:04;90594.47;;;6.72;100.00
53300;BME280;39187;48.476;8.310;2023-03-13T07:44:30;90599.03;;;6.72;100.00
53300;BME280;39187;48.476;8.310;2023-03-13T07:46:58;90575.47;;;6.58;100.00
53300;BME280;39187;48.476;8.310;2023-03-13T07:49:24;90569.47;;;6.54;100.00
53300;BME280;39187;48.476;8.310;2023-03-13T07:51:50;90570.06;;;6.65;100.00
53300;BME280;39187;48.476;8.310;2023-03-13T07:54:15;90561.09;;;6.59;100.00
53300;BME280;39187;48.476;8.310;2023-03-13T07:56:41;90559.94;;;6.60;100.00
53300;BME280;39187;48.476;8.310;2023-03-13T07:59:07;90555.91;;;6.75;100.00
53300;BME280;39187;48.476;8.310;2023-03-13T08:01:32;90563.91;;;6.71;100.00
53300;BME280;39187;48.476;8.310;2023-03-13T08:03:58;90553.94;;;6.79;100.00
53300;BME280;39187;48.476;8.310;2023-03-13T08:06:29;90561.22;;;6.95;100.00
53300;BME280;39187;48.476;8.310;2023-03-13T08:08:58;90568.34;;;7.17;100.00
53300;BME280;39187;48.476;8.310;2023-03-13T08:11:26;90559.13;;;7.06;100.00
53300;BME280;39187;48.476;8.310;2023-03-13T08:13:52;90566.88;;;7.16;100.00
53300;BME280;39187;48.476;8.310;2023-03-13T08:16:20;90555.31;;;7.07;100.00
53300;BME280;39187;48.476;8.310;2023-03-13T08:18:48;90550.56;;;7.18;100.00
53300;BME280;39187;48.476;8.310;2023-03-13T08:21:19;90548.47;;;7.29;100.00
53300;BME280;39187;48.476;8.310;2023-03-13T08:23:46;90551.88;;;7.30;100.00
53300;BME280;39187;48.476;8.310;2023-03-13T08:26:14;90552.28;;;7.28;100.00
53300;BME280;39187;48.476;8.310;2023-03-13T08:28:40;90551.19;;;7.25;100.00
53300;BME280;39187;48.476;8.310;2023-03-13T08:31:17;90539.53;;;7.23;100.00
53300;BME280;39187;48.476;8.310;2023-03-13T08:33:45;90554.44;;;7.33;100.00
53300;BME280;39187;48.476;8.310;2023-03-13T08:38:48;90539.56;;;7.39;100.00
53300;BME280;39187;48.476;8.310;2023-03-13T08:41:17;90544.78;;;7.43;100.00
53300;BME280;39187;48.476;8.310;2023-03-13T08:43:43;90558.91;;;7.36;100.00
53300;BME280;39187;48.476;8.310;2023-03-13T08:46:09;90568.47;;;7.50;100.00
53300;BME280;39187;48.476;8.310;2023-03-13T08:48:35;90556.56;;;7.22;100.00
53300;BME280;39187;48.476;8.310;2023-03-13T08:51:04;90545.34;;;7.14;100.00
53300;BME280;39187;48.476;8.310;2023-03-13T08:53:31;90542.63;;;7.18;100.00
53300;BME280;39187;48.476;8.310;2023-03-13T08:55:58;90554.66;;;7.22;100.00
53300;BME280;39187;48.476;8.310;2023-03-13T08:58:24;90536.66;;;7.14;100.00
53300;BME280;39187;48.476;8.310;2023-03-13T09:00:49;90540.72;;;7.18;100.00
53300;BME280;39187;48.476;8.310;2023-03-13T09:03:15;90557.56;;;7.48;100.00
53300;BME280;39187;48.476;8.310;2023-03-13T09:05:41;90547.66;;;7.12;100.00
53300;BME280;39187;48.476;8.310;2023-03-13T09:08:07;90550.06;;;7.43;100.00
53300;BME280;39187;48.476;8.310;2023-03-13T09:10:33;90546.22;;;7.28;100.00
53300;BME280;39187;48.476;8.310;2023-03-13T09:13:00;90553.03;;;7.29;100.00
53300;BME280;39187;48.476;8.310;2023-03-13T09:15:25;90555.66;;;7.29;100.00
53300;BME280;39187;48.476;8.310;2023-03-13T09:17:51;90554.69;;;7.39;100.00
53300;BME280;39187;48.476;8.310;2023-03-13T09:20:16;90549.34;;;7.42;100.00
53300;BME280;39187;48.476;8.310;2023-03-13T09:22:44;90552.06;;;7.39;100.00
53300;BME280;39187;48.476;8.310;2023-03-13T09:25:11;90539.78;;;7.29;100.00
53300;BME280;39187;48.476;8.310;2023-03-13T09:27:37;90548.03;;;7.50;100.00
53300;BME280;39187;48.476;8.310;2023-03-13T09:30:03;90543.06;;;7.52;100.00
53300;BME280;39187;48.476;8.310;2023-03-13T09:32:28;90532.22;;;7.47;100.00
53300;BME280;39187;48.476;8.310;2023-03-13T09:34:54;90532.88;;;7.51;100.00
53300;BME280;39187;48.476;8.310;2023-03-13T09:37:20;90535.50;;;7.71;100.00
53300;BME280;39187;48.476;8.310;2023-03-13T09:39:47;90526.91;;;7.83;100.00
53300;BME280;39187;48.476;8.310;2023-03-13T09:42:52;90528.41;;;7.84;100.00
53300;BME280;39187;48.476;8.310;2023-03-13T09:45:29;90527.59;;;7.87;100.00
53300;BME280;39187;48.476;8.310;2023-03-13T09:48:04;90522.69;;;8.01;100.00
53300;BME280;39187;48.476;8.310;2023-03-13T09:50:44;90516.00;;;7.97;100.00
53300;BME280;39187;48.476;8.310;2023-03-13T09:53:14;90511.19;;;8.08;100.00
53300;BME280;39187;48.476;8.310;2023-03-13T09:55:42;90512.78;;;8.38;100.00
53300;BME280;39187;48.476;8.310;2023-03-13T09:58:15;90505.16;;;8.40;100.00
53300;BME280;39187;48.476;8.310;2023-03-13T10:00:53;90503.66;;;8.39;100.00
53300;BME280;39187;48.476;8.310;2023-03-13T10:03:30;90499.34;;;8.29;100.00
53300;BME280;39187;48.476;8.310;2023-03-13T10:06:01;90490.75;;;8.41;100.00
53300;BME280;39187;48.476;8.310;2023-03-13T10:08:31;90495.06;;;8.35;100.00
53300;BME280;39187;48.476;8.310;2023-03-13T10:11:10;90496.56;;;8.36;100.00
53300;BME280;39187;48.476;8.310;2023-03-13T10:13:41;90484.34;;;8.55;100.00
53300;BME280;39187;48.476;8.310;2023-03-13T10:16:13;90485.03;;;8.71;100.00
53300;BME280;39187;48.476;8.310;2023-03-13T10:18:44;90475.78;;;8.92;100.00
53300;BME280;39187;48.476;8.310;2023-03-13T10:21:18;90471.91;;;8.52;100.00
53300;BME280;39187;48.476;8.310;2023-03-13T10:23:58;90465.31;;;8.72;100.00
53300;BME280;39187;48.476;8.310;2023-03-13T10:26:31;90464.81;;;8.90;100.00
53300;BME280;39187;48.476;8.310;2023-03-13T10:29:01;90472.38;;;8.92;100.00
53300;BME280;39187;48.476;8.310;2023-03-13T10:31:38;90451.34;;;8.84;100.00
53300;BME280;39187;48.476;8.310;2023-03-13T10:34:09;90451.44;;;8.81;100.00
53300;BME280;39187;48.476;8.310;2023-03-13T10:36:47;90452.25;;;9.07;100.00
53300;BME280;39187;48.476;8.310;2023-03-13T10:39:18;90439.81;;;9.04;100.00
53300;BME280;39187;48.476;8.310;2023-03-13T10:41:47;90436.66;;;9.09;100.00
53300;BME280;39187;48.476;8.310;2023-03-13T10:44:18;90435.59;;;9.06;100.00
53300;BME280;39187;48.476;8.310;2023-03-13T10:46:45;90432.97;;;9.32;100.00
53300;BME280;39187;48.476;8.310;2023-03-13T10:49:30;90427.25;;;9.58;100.00
53300;BME280;39187;48.476;8.310;2023-03-13T10:51:59;90423.69;;;9.99;100.00
53300;BME280;39187;48.476;8.310;2023-03-13T10:54:30;90409.75;;;9.95;100.00
53300;BME280;39187;48.476;8.310;2023-03-13T10:59:46;90423.75;;;10.34;100.00
53300;BME280;39187;48.476;8.310;2023-03-13T11:04:49;90405.69;;;10.29;100.00
53300;BME280;39187;48.476;8.310;2023-03-13T11:07:36;90396.22;;;10.28;100.00
53300;BME280;39187;48.476;8.310;2023-03-13T11:10:26;90390.47;;;10.29;100.00
53300;BME280;39187;48.476;8.310;2023-03-13T11:12:55;90389.91;;;10.34;100.00
53300;BME280;39187;48.476;8.310;2023-03-13T11:15:33;90390.63;;;10.48;100.00
53300;BME280;39187;48.476;8.310;2023-03-13T11:18:17;90398.34;;;10.55;100.00
53300;BME280;39187;48.476;8.310;2023-03-13T11:20:48;90387.84;;;10.73;100.00
53300;BME280;39187;48.476;8.310;2023-03-13T11:23:27;90384.84;;;10.71;100.00
53300;BME280;39187;48.476;8.310;2023-03-13T11:26:03;90379.13;;;11.03;100.00
53300;BME280;39187;48.476;8.310;2023-03-13T11:29:00;90371.63;;;11.11;100.00
53300;BME280;39187;48.476;8.310;2023-03-13T11:31:33;90363.56;;;11.23;100.00
53300;BME280;39187;48.476;8.310;2023-03-13T11:34:04;90360.31;;;11.29;100.00
53300;BME280;39187;48.476;8.310;2023-03-13T11:50:51;90335.34;;;11.75;100.00
53300;BME280;39187;48.476;8.310;2023-03-13T12:01:56;90316.41;;;11.91;96.49
53300;BME280;39187;48.476;8.310;2023-03-13T12:04:35;90305.31;;;12.20;95.09
53300;BME280;39187;48.476;8.310;2023-03-13T12:07:15;90313.16;;;12.05;95.38
53300;BME280;39187;48.476;8.310;2023-03-13T12:10:03;90302.94;;;11.95;96.42
53300;BME280;39187;48.476;8.310;2023-03-13T12:15:14;90271.38;;;12.21;94.12
53300;BME280;39187;48.476;8.310;2023-03-13T12:17:48;90267.25;;;12.29;93.84
53300;BME280;39187;48.476;8.310;2023-03-13T12:20:23;90261.41;;;12.58;94.53
53300;BME280;39187;48.476;8.310;2023-03-13T12:25:24;90253.84;;;12.65;94.18
53300;BME280;39187;48.476;8.310;2023-03-13T12:28:03;90249.72;;;12.46;93.54
53300;BME280;39187;48.476;8.310;2023-03-13T12:30:51;90239.16;;;12.61;92.10
53300;BME280;39187;48.476;8.310;2023-03-13T12:33:24;90231.38;;;12.81;93.29
53300;BME280;39187;48.476;8.310;2023-03-13T12:35:59;90223.97;;;12.85;93.66
53300;BME280;39187;48.476;8.310;2023-03-13T12:38:36;90217.16;;;12.75;92.39
53300;BME280;39187;48.476;8.310;2023-03-13T12:43:51;90208.75;;;12.67;89.92
53300;BME280;39187;48.476;8.310;2023-03-13T12:49:38;90174.91;;;12.73;89.38
53300;BME280;39187;48.476;8.310;2023-03-13T13:00:42;90149.44;;;12.96;87.27
53300;BME280;39187;48.476;8.310;2023-03-13T13:08:24;90154.84;;;13.11;87.00
53300;BME280;39187;48.476;8.310;2023-03-13T13:10:50;90154.31;;;12.98;87.33
53300;BME280;39187;48.476;8.310;2023-03-13T13:13:24;90136.53;;;12.95;86.01
53300;BME280;39187;48.476;8.310;2023-03-13T13:16:03;90136.94;;;13.26;84.99
53300;BME280;39187;48.476;8.310;2023-03-13T13:18:31;90130.66;;;13.14;84.98
53300;BME280;39187;48.476;8.310;2023-03-13T13:23:40;90134.69;;;13.01;87.20
53300;BME280;39187;48.476;8.310;2023-03-13T13:28:56;90097.22;;;13.19;85.47
53300;BME280;39187;48.476;8.310;2023-03-13T13:37:23;90092.97;;;13.51;82.63
53300;BME280;39187;48.476;8.310;2023-03-13T13:39:51;90096.66;;;13.53;82.41
53300;BME280;39187;48.476;8.310;2023-03-13T13:47:40;90095.53;;;13.45;83.93
53300;BME280;39187;48.476;8.310;2023-03-13T13:50:24;90089.25;;;13.34;83.23
53300;BME280;39187;48.476;8.310;2023-03-13T13:52:51;90073.91;;;13.43;82.09
53300;BME280;39187;48.476;8.310;2023-03-13T13:58:08;90068.44;;;13.38;82.42
53300;BME280;39187;48.476;8.310;2023-03-13T14:00:41;90053.88;;;13.39;81.48
53300;BME280;39187;48.476;8.310;2023-03-13T14:03:24;90056.97;;;13.61;79.53
53300;BME280;39187;48.476;8.310;2023-03-13T14:05:58;90047.84;;;13.68;80.33
53300;BME280;39187;48.476;8.310;2023-03-13T14:08:28;90049.78;;;13.82;79.88
53300;BME280;39187;48.476;8.310;2023-03-13T14:13:39;90040.56;;;13.68;77.18
53300;BME280;39187;48.476;8.310;2023-03-13T14:18:45;90030.97;;;13.76;78.52
53300;BME280;39187;48.476;8.310;2023-03-13T14:21:11;90027.56;;;13.76;77.86
53300;BME280;39187;48.476;8.310;2023-03-13T14:23:44;90020.25;;;13.91;77.55
53300;BME280;39187;48.476;8.310;2023-03-13T14:26:22;90021.56;;;13.81;77.71
53300;BME280;39187;48.476;8.310;2023-03-13T14:28:51;90009.59;;;13.76;77.17
53300;BME280;39187;48.476;8.310;2023-03-13T14:31:24;90008.53;;;14.03;77.32
53300;BME280;39187;48.476;8.310;2023-03-13T14:33:51;90021.00;;;13.77;77.41
53300;BME280;39187;48.476;8.310;2023-03-13T14:36:17;90001.16;;;13.83;77.50